Terminal Aerodrome Forecast
Issued by NWS New Orleans/Baton Rouge, LA

Home | Current Version | Previous Version | Text Only | Print | Product List | Glossary On
Versions: 1 2 3 4 5 6 7 8 9 10 11 12 13 14 15 16 17
000
FTUS44 KLIX 251451 AAA
TAFNEW
TAF AMD
KNEW 251451Z 2515/2612 14007KT P6SM VCTS SCT020 BKN030CB
     FM251700 VRB10G15KT 5SM TSRA BKN030CB OVC090
     FM252200 14007KT P6SM VCTS SCT030CB BKN100
     FM260800 VRB03KT P6SM SCT020 BKN150=

USA.gov is the U.S. government's official web portal to all federal, state and local government web resources and services.